sensor_id;sensor_type;location;lat;lon;timestamp;P1;durP1;ratioP1;P2;durP2;ratioP2
1000;SDS011;489;47.806;12.858;2023-12-04T00:00:00;10.47;;;6.10;;
1000;SDS011;489;47.806;12.858;2023-12-04T00:02:12;11.23;;;6.63;;
1000;SDS011;489;47.806;12.858;2023-12-04T00:04:14;11.57;;;5.73;;
1000;SDS011;489;47.806;12.858;2023-12-04T00:06:16;11.67;;;6.43;;
1000;SDS011;489;47.806;12.858;2023-12-04T00:08:18;8.47;;;5.80;;
1000;SDS011;489;47.806;12.858;2023-12-04T00:10:20;7.90;;;4.53;;
1000;SDS011;489;47.806;12.858;2023-12-04T00:12:21;12.77;;;6.03;;
1000;SDS011;489;47.806;12.858;2023-12-04T00:14:25;8.40;;;5.60;;
1000;SDS011;489;47.806;12.858;2023-12-04T00:16:27;8.70;;;5.10;;
1000;SDS011;489;47.806;12.858;2023-12-04T00:18:29;10.93;;;7.93;;
1000;SDS011;489;47.806;12.858;2023-12-04T00:20:30;9.93;;;7.33;;
1000;SDS011;489;47.806;12.858;2023-12-04T00:22:32;12.60;;;7.60;;
1000;SDS011;489;47.806;12.858;2023-12-04T00:24:33;8.30;;;5.50;;
1000;SDS011;489;47.806;12.858;2023-12-04T00:26:35;8.93;;;4.87;;
1000;SDS011;489;47.806;12.858;2023-12-04T00:28:37;7.87;;;5.03;;
1000;SDS011;489;47.806;12.858;2023-12-04T00:30:40;7.57;;;5.17;;
1000;SDS011;489;47.806;12.858;2023-12-04T00:32:41;8.83;;;4.97;;
1000;SDS011;489;47.806;12.858;2023-12-04T00:34:43;8.70;;;5.20;;
1000;SDS011;489;47.806;12.858;2023-12-04T00:36:44;11.37;;;6.10;;
1000;SDS011;489;47.806;12.858;2023-12-04T00:38:46;10.20;;;5.93;;
1000;SDS011;489;47.806;12.858;2023-12-04T00:40:48;16.00;;;9.10;;
1000;SDS011;489;47.806;12.858;2023-12-04T00:42:51;13.90;;;7.53;;
1000;SDS011;489;47.806;12.858;2023-12-04T00:44:53;10.73;;;5.73;;
1000;SDS011;489;47.806;12.858;2023-12-04T00:46:56;8.40;;;5.20;;
1000;SDS011;489;47.806;12.858;2023-12-04T00:48:58;10.03;;;5.40;;
1000;SDS011;489;47.806;12.858;2023-12-04T00:51:00;9.57;;;5.57;;
1000;SDS011;489;47.806;12.858;2023-12-04T00:53:03;7.53;;;5.70;;
1000;SDS011;489;47.806;12.858;2023-12-04T00:55:05;6.70;;;4.57;;
1000;SDS011;489;47.806;12.858;2023-12-04T00:57:08;6.70;;;4.87;;
1000;SDS011;489;47.806;12.858;2023-12-04T00:59:09;7.03;;;4.53;;
1000;SDS011;489;47.806;12.858;2023-12-04T01:01:11;8.73;;;4.47;;
1000;SDS011;489;47.806;12.858;2023-12-04T01:03:15;9.53;;;6.80;;
1000;SDS011;489;47.806;12.858;2023-12-04T01:05:16;11.30;;;7.40;;
1000;SDS011;489;47.806;12.858;2023-12-04T01:07:18;8.30;;;5.67;;
1000;SDS011;489;47.806;12.858;2023-12-04T01:09:19;8.50;;;6.10;;
1000;SDS011;489;47.806;12.858;2023-12-04T01:11:24;9.43;;;5.73;;
1000;SDS011;489;47.806;12.858;2023-12-04T01:13:26;7.70;;;5.80;;
1000;SDS011;489;47.806;12.858;2023-12-04T01:15:27;12.50;;;7.47;;
1000;SDS011;489;47.806;12.858;2023-12-04T01:17:29;7.07;;;4.87;;
1000;SDS011;489;47.806;12.858;2023-12-04T01:19:32;9.60;;;5.40;;
1000;SDS011;489;47.806;12.858;2023-12-04T01:21:34;7.00;;;4.50;;
1000;SDS011;489;47.806;12.858;2023-12-04T01:23:36;5.73;;;3.87;;
1000;SDS011;489;47.806;12.858;2023-12-04T01:25:38;7.40;;;4.87;;
1000;SDS011;489;47.806;12.858;2023-12-04T01:27:40;6.30;;;4.97;;
1000;SDS011;489;47.806;12.858;2023-12-04T01:29:41;7.43;;;4.40;;
1000;SDS011;489;47.806;12.858;2023-12-04T01:31:43;5.17;;;4.03;;
1000;SDS011;489;47.806;12.858;2023-12-04T01:33:45;5.83;;;3.47;;
1000;SDS011;489;47.806;12.858;2023-12-04T01:35:49;4.90;;;3.57;;
1000;SDS011;489;47.806;12.858;2023-12-04T01:37:50;5.10;;;4.03;;
1000;SDS011;489;47.806;12.858;2023-12-04T01:39:53;4.73;;;3.80;;
1000;SDS011;489;47.806;12.858;2023-12-04T01:41:55;5.53;;;3.80;;
1000;SDS011;489;47.806;12.858;2023-12-04T01:43:57;5.40;;;3.37;;
1000;SDS011;489;47.806;12.858;2023-12-04T01:45:58;8.70;;;4.80;;
1000;SDS011;489;47.806;12.858;2023-12-04T01:48:01;5.20;;;4.10;;
1000;SDS011;489;47.806;12.858;2023-12-04T01:50:03;5.80;;;3.63;;
1000;SDS011;489;47.806;12.858;2023-12-04T01:52:07;6.70;;;5.00;;
1000;SDS011;489;47.806;12.858;2023-12-04T01:54:09;4.53;;;3.37;;
1000;SDS011;489;47.806;12.858;2023-12-04T01:56:11;6.77;;;3.50;;
1000;SDS011;489;47.806;12.858;2023-12-04T01:58:13;5.20;;;3.77;;
1000;SDS011;489;47.806;12.858;2023-12-04T02:00:16;4.20;;;2.70;;
1000;SDS011;489;47.806;12.858;2023-12-04T02:02:20;4.73;;;3.23;;
1000;SDS011;489;47.806;12.858;2023-12-04T02:04:22;4.37;;;3.27;;
1000;SDS011;489;47.806;12.858;2023-12-04T02:06:24;5.50;;;3.90;;
1000;SDS011;489;47.806;12.858;2023-12-04T02:08:28;8.90;;;4.73;;
1000;SDS011;489;47.806;12.858;2023-12-04T02:10:30;8.60;;;4.40;;
1000;SDS011;489;47.806;12.858;2023-12-04T02:12:32;4.77;;;3.73;;
1000;SDS011;489;47.806;12.858;2023-12-04T02:14:34;6.13;;;3.80;;
1000;SDS011;489;47.806;12.858;2023-12-04T02:16:38;4.33;;;3.50;;
1000;SDS011;489;47.806;12.858;2023-12-04T02:18:40;6.20;;;3.57;;
1000;SDS011;489;47.806;12.858;2023-12-04T02:20:42;6.97;;;4.17;;
1000;SDS011;489;47.806;12.858;2023-12-04T02:22:44;5.03;;;3.43;;
1000;SDS011;489;47.806;12.858;2023-12-04T02:24:48;6.40;;;4.40;;
1000;SDS011;489;47.806;12.858;2023-12-04T02:26:50;6.70;;;4.37;;
1000;SDS011;489;47.806;12.858;2023-12-04T02:28:55;4.50;;;3.67;;
1000;SDS011;489;47.806;12.858;2023-12-04T02:30:59;7.47;;;4.10;;
1000;SDS011;489;47.806;12.858;2023-12-04T02:33:03;6.10;;;3.60;;
1000;SDS011;489;47.806;12.858;2023-12-04T02:35:07;5.50;;;3.67;;
1000;SDS011;489;47.806;12.858;2023-12-04T02:37:10;6.03;;;4.63;;
1000;SDS011;489;47.806;12.858;2023-12-04T02:39:31;8.30;;;4.07;;
1000;SDS011;489;47.806;12.858;2023-12-04T02:41:34;7.43;;;3.80;;
1000;SDS011;489;47.806;12.858;2023-12-04T02:43:36;4.43;;;3.27;;
1000;SDS011;489;47.806;12.858;2023-12-04T02:45:38;5.60;;;3.83;;
1000;SDS011;489;47.806;12.858;2023-12-04T02:47:39;6.03;;;3.67;;
1000;SDS011;489;47.806;12.858;2023-12-04T02:49:42;4.47;;;2.90;;
1000;SDS011;489;47.806;12.858;2023-12-04T02:51:44;4.67;;;3.53;;
1000;SDS011;489;47.806;12.858;2023-12-04T02:53:46;6.50;;;3.63;;
1000;SDS011;489;47.806;12.858;2023-12-04T02:55:47;7.23;;;3.67;;
1000;SDS011;489;47.806;12.858;2023-12-04T02:57:51;4.20;;;2.93;;
1000;SDS011;489;47.806;12.858;2023-12-04T02:59:53;4.57;;;3.23;;
1000;SDS011;489;47.806;12.858;2023-12-04T03:01:54;7.80;;;3.83;;
1000;SDS011;489;47.806;12.858;2023-12-04T03:03:56;4.73;;;3.10;;
1000;SDS011;489;47.806;12.858;2023-12-04T03:05:57;7.70;;;3.80;;
1000;SDS011;489;47.806;12.858;2023-12-04T03:07:59;3.50;;;3.20;;
1000;SDS011;489;47.806;12.858;2023-12-04T03:10:01;5.03;;;3.60;;
1000;SDS011;489;47.806;12.858;2023-12-04T03:12:04;4.67;;;3.80;;
1000;SDS011;489;47.806;12.858;2023-12-04T03:14:08;5.77;;;4.20;;
1000;SDS011;489;47.806;12.858;2023-12-04T03:16:14;7.37;;;4.50;;
1000;SDS011;489;47.806;12.858;2023-12-04T03:18:17;6.20;;;3.70;;
1000;SDS011;489;47.806;12.858;2023-12-04T03:20:19;5.40;;;3.67;;
1000;SDS011;489;47.806;12.858;2023-12-04T03:22:21;4.87;;;3.47;;
1000;SDS011;489;47.806;12.858;2023-12-04T03:24:23;4.60;;;3.30;;
1000;SDS011;489;47.806;12.858;2023-12-04T03:26:26;4.60;;;3.27;;
1000;SDS011;489;47.806;12.858;2023-12-04T03:28:28;4.73;;;3.17;;
1000;SDS011;489;47.806;12.858;2023-12-04T03:30:31;4.00;;;3.10;;
1000;SDS011;489;47.806;12.858;2023-12-04T03:32:33;6.20;;;3.50;;
1000;SDS011;489;47.806;12.858;2023-12-04T03:34:35;4.93;;;3.23;;
1000;SDS011;489;47.806;12.858;2023-12-04T03:36:37;5.00;;;3.53;;
1000;SDS011;489;47.806;12.858;2023-12-04T03:38:39;7.57;;;3.60;;
1000;SDS011;489;47.806;12.858;2023-12-04T03:40:41;6.30;;;4.00;;
1000;SDS011;489;47.806;12.858;2023-12-04T03:42:43;7.20;;;3.30;;
1000;SDS011;489;47.806;12.858;2023-12-04T03:44:45;5.00;;;2.73;;
1000;SDS011;489;47.806;12.858;2023-12-04T03:46:50;4.17;;;2.67;;
1000;SDS011;489;47.806;12.858;2023-12-04T03:48:52;5.33;;;3.43;;
1000;SDS011;489;47.806;12.858;2023-12-04T03:50:54;5.30;;;3.10;;
1000;SDS011;489;47.806;12.858;2023-12-04T03:52:56;6.23;;;3.90;;
1000;SDS011;489;47.806;12.858;2023-12-04T03:54:58;3.80;;;2.80;;
1000;SDS011;489;47.806;12.858;2023-12-04T03:56:59;5.40;;;3.50;;
1000;SDS011;489;47.806;12.858;2023-12-04T03:59:01;5.00;;;3.90;;
1000;SDS011;489;47.806;12.858;2023-12-04T04:01:03;5.93;;;3.70;;
1000;SDS011;489;47.806;12.858;2023-12-04T04:03:06;4.87;;;3.07;;
1000;SDS011;489;47.806;12.858;2023-12-04T04:05:08;5.50;;;4.10;;
1000;SDS011;489;47.806;12.858;2023-12-04T04:07:10;4.70;;;3.40;;
1000;SDS011;489;47.806;12.858;2023-12-04T04:09:13;4.40;;;3.37;;
1000;SDS011;489;47.806;12.858;2023-12-04T04:11:15;7.00;;;3.83;;
1000;SDS011;489;47.806;12.858;2023-12-04T04:13:16;5.10;;;3.30;;
1000;SDS011;489;47.806;12.858;2023-12-04T04:15:18;5.20;;;3.70;;
1000;SDS011;489;47.806;12.858;2023-12-04T04:17:20;4.67;;;3.50;;
1000;SDS011;489;47.806;12.858;2023-12-04T04:19:23;3.63;;;3.00;;
1000;SDS011;489;47.806;12.858;2023-12-04T04:21:25;4.20;;;3.00;;
1000;SDS011;489;47.806;12.858;2023-12-04T04:23:27;3.33;;;2.83;;
1000;SDS011;489;47.806;12.858;2023-12-04T04:25:28;5.47;;;3.00;;
1000;SDS011;489;47.806;12.858;2023-12-04T04:27:30;2.80;;;2.50;;
1000;SDS011;489;47.806;12.858;2023-12-04T04:29:32;5.67;;;2.93;;
1000;SDS011;489;47.806;12.858;2023-12-04T04:31:34;4.17;;;3.00;;
1000;SDS011;489;47.806;12.858;2023-12-04T04:33:36;4.63;;;3.30;;
1000;SDS011;489;47.806;12.858;2023-12-04T04:35:39;5.10;;;2.90;;
1000;SDS011;489;47.806;12.858;2023-12-04T04:37:41;3.37;;;2.80;;
1000;SDS011;489;47.806;12.858;2023-12-04T04:39:43;4.47;;;3.33;;
1000;SDS011;489;47.806;12.858;2023-12-04T04:41:45;4.87;;;3.50;;
1000;SDS011;489;47.806;12.858;2023-12-04T04:43:47;4.10;;;3.10;;
1000;SDS011;489;47.806;12.858;2023-12-04T04:45:49;4.00;;;2.80;;
1000;SDS011;489;47.806;12.858;2023-12-04T04:47:51;4.77;;;3.40;;
1000;SDS011;489;47.806;12.858;2023-12-04T04:49:53;6.30;;;3.67;;
1000;SDS011;489;47.806;12.858;2023-12-04T04:51:56;5.53;;;3.67;;
1000;SDS011;489;47.806;12.858;2023-12-04T04:53:58;4.50;;;2.93;;
1000;SDS011;489;47.806;12.858;2023-12-04T04:56:00;5.20;;;3.60;;
1000;SDS011;489;47.806;12.858;2023-12-04T04:58:02;5.73;;;2.87;;
1000;SDS011;489;47.806;12.858;2023-12-04T05:00:05;4.07;;;2.77;;
1000;SDS011;489;47.806;12.858;2023-12-04T05:02:08;6.23;;;3.30;;
1000;SDS011;489;47.806;12.858;2023-12-04T05:04:10;3.20;;;2.57;;
1000;SDS011;489;47.806;12.858;2023-12-04T05:06:12;4.70;;;3.23;;
1000;SDS011;489;47.806;12.858;2023-12-04T05:08:15;2.97;;;2.67;;
1000;SDS011;489;47.806;12.858;2023-12-04T05:10:17;5.90;;;3.90;;
1000;SDS011;489;47.806;12.858;2023-12-04T05:12:19;4.73;;;2.77;;
1000;SDS011;489;47.806;12.858;2023-12-04T05:14:21;4.37;;;2.90;;
1000;SDS011;489;47.806;12.858;2023-12-04T05:16:23;5.13;;;3.27;;
1000;SDS011;489;47.806;12.858;2023-12-04T05:18:25;6.27;;;3.47;;
1000;SDS011;489;47.806;12.858;2023-12-04T05:20:27;5.03;;;3.13;;
1000;SDS011;489;47.806;12.858;2023-12-04T05:22:29;4.57;;;3.30;;
1000;SDS011;489;47.806;12.858;2023-12-04T05:24:32;4.90;;;4.07;;
1000;SDS011;489;47.806;12.858;2023-12-04T05:26:35;4.10;;;2.80;;
1000;SDS011;489;47.806;12.858;2023-12-04T05:28:37;3.30;;;2.67;;
1000;SDS011;489;47.806;12.858;2023-12-04T05:30:39;3.53;;;2.90;;
1000;SDS011;489;47.806;12.858;2023-12-04T05:32:41;3.80;;;2.77;;
1000;SDS011;489;47.806;12.858;2023-12-04T05:34:43;2.90;;;2.40;;
1000;SDS011;489;47.806;12.858;2023-12-04T05:36:46;6.20;;;3.40;;
1000;SDS011;489;47.806;12.858;2023-12-04T05:38:48;5.10;;;2.87;;
1000;SDS011;489;47.806;12.858;2023-12-04T05:40:51;4.23;;;2.67;;
1000;SDS011;489;47.806;12.858;2023-12-04T05:42:54;2.87;;;2.30;;
1000;SDS011;489;47.806;12.858;2023-12-04T05:44:57;3.97;;;2.80;;
1000;SDS011;489;47.806;12.858;2023-12-04T05:47:00;5.73;;;3.50;;
1000;SDS011;489;47.806;12.858;2023-12-04T05:49:02;3.63;;;2.80;;
1000;SDS011;489;47.806;12.858;2023-12-04T05:51:04;3.33;;;2.40;;
1000;SDS011;489;47.806;12.858;2023-12-04T05:53:06;3.97;;;3.33;;
1000;SDS011;489;47.806;12.858;2023-12-04T05:55:09;5.17;;;3.70;;
1000;SDS011;489;47.806;12.858;2023-12-04T05:57:13;4.87;;;3.30;;
1000;SDS011;489;47.806;12.858;2023-12-04T05:59:16;5.07;;;3.70;;
1000;SDS011;489;47.806;12.858;2023-12-04T06:01:18;4.60;;;2.97;;
1000;SDS011;489;47.806;12.858;2023-12-04T06:03:20;3.63;;;3.10;;
1000;SDS011;489;47.806;12.858;2023-12-04T06:05:22;4.00;;;2.90;;
1000;SDS011;489;47.806;12.858;2023-12-04T06:07:23;6.10;;;3.83;;
1000;SDS011;489;47.806;12.858;2023-12-04T06:09:25;5.30;;;3.33;;
1000;SDS011;489;47.806;12.858;2023-12-04T06:11:26;5.17;;;3.63;;
1000;SDS011;489;47.806;12.858;2023-12-04T06:13:29;5.97;;;3.70;;
1000;SDS011;489;47.806;12.858;2023-12-04T06:15:31;4.23;;;3.30;;
1000;SDS011;489;47.806;12.858;2023-12-04T06:17:34;4.87;;;3.63;;
1000;SDS011;489;47.806;12.858;2023-12-04T06:19:35;10.70;;;5.00;;
1000;SDS011;489;47.806;12.858;2023-12-04T06:21:37;6.10;;;4.53;;
1000;SDS011;489;47.806;12.858;2023-12-04T06:23:39;10.03;;;4.67;;
1000;SDS011;489;47.806;12.858;2023-12-04T06:25:41;8.00;;;5.00;;
1000;SDS011;489;47.806;12.858;2023-12-04T06:27:43;8.97;;;4.90;;
1000;SDS011;489;47.806;12.858;2023-12-04T06:29:48;10.67;;;6.23;;
1000;SDS011;489;47.806;12.858;2023-12-04T06:31:49;12.07;;;8.17;;
1000;SDS011;489;47.806;12.858;2023-12-04T06:33:52;11.10;;;6.53;;
1000;SDS011;489;47.806;12.858;2023-12-04T06:35:54;9.87;;;5.70;;
1000;SDS011;489;47.806;12.858;2023-12-04T06:37:56;12.97;;;7.37;;
1000;SDS011;489;47.806;12.858;2023-12-04T06:40:06;10.70;;;6.30;;
1000;SDS011;489;47.806;12.858;2023-12-04T06:42:11;6.77;;;4.73;;
1000;SDS011;489;47.806;12.858;2023-12-04T06:44:14;12.63;;;6.03;;
1000;SDS011;489;47.806;12.858;2023-12-04T06:46:17;11.70;;;6.00;;
1000;SDS011;489;47.806;12.858;2023-12-04T06:48:23;6.63;;;4.30;;
1000;SDS011;489;47.806;12.858;2023-12-04T06:50:25;5.37;;;3.57;;
1000;SDS011;489;47.806;12.858;2023-12-04T06:52:27;7.03;;;4.10;;
1000;SDS011;489;47.806;12.858;2023-12-04T06:54:29;5.90;;;4.00;;
1000;SDS011;489;47.806;12.858;2023-12-04T06:56:32;7.17;;;4.00;;
1000;SDS011;489;47.806;12.858;2023-12-04T06:58:33;6.00;;;3.70;;
1000;SDS011;489;47.806;12.858;2023-12-04T07:00:35;5.17;;;4.07;;
1000;SDS011;489;47.806;12.858;2023-12-04T07:02:39;6.80;;;3.90;;
1000;SDS011;489;47.806;12.858;2023-12-04T07:04:41;6.67;;;4.10;;
1000;SDS011;489;47.806;12.858;2023-12-04T07:06:42;9.23;;;4.77;;
1000;SDS011;489;47.806;12.858;2023-12-04T07:08:44;6.33;;;3.80;;
1000;SDS011;489;47.806;12.858;2023-12-04T07:10:45;6.93;;;4.20;;
1000;SDS011;489;47.806;12.858;2023-12-04T07:12:47;6.63;;;4.77;;
1000;SDS011;489;47.806;12.858;2023-12-04T07:14:49;8.60;;;6.07;;
1000;SDS011;489;47.806;12.858;2023-12-04T07:16:51;9.07;;;5.47;;
1000;SDS011;489;47.806;12.858;2023-12-04T07:18:53;10.30;;;6.70;;
1000;SDS011;489;47.806;12.858;2023-12-04T07:20:55;9.60;;;5.40;;
1000;SDS011;489;47.806;12.858;2023-12-04T07:22:57;8.53;;;5.90;;
1000;SDS011;489;47.806;12.858;2023-12-04T07:24:59;10.90;;;5.70;;
1000;SDS011;489;47.806;12.858;2023-12-04T07:27:00;7.63;;;5.43;;
1000;SDS011;489;47.806;12.858;2023-12-04T07:29:02;11.03;;;5.87;;
1000;SDS011;489;47.806;12.858;2023-12-04T07:31:04;13.13;;;8.17;;
1000;SDS011;489;47.806;12.858;2023-12-04T07:33:07;10.20;;;6.10;;
1000;SDS011;489;47.806;12.858;2023-12-04T07:35:10;11.53;;;6.57;;
1000;SDS011;489;47.806;12.858;2023-12-04T07:37:12;16.50;;;7.30;;
1000;SDS011;489;47.806;12.858;2023-12-04T07:39:13;12.27;;;6.90;;
1000;SDS011;489;47.806;12.858;2023-12-04T07:41:16;17.73;;;8.97;;
1000;SDS011;489;47.806;12.858;2023-12-04T07:43:18;21.33;;;9.97;;
1000;SDS011;489;47.806;12.858;2023-12-04T07:45:19;16.80;;;9.73;;
1000;SDS011;489;47.806;12.858;2023-12-04T07:47:21;12.00;;;7.43;;
1000;SDS011;489;47.806;12.858;2023-12-04T07:49:23;11.03;;;6.57;;
1000;SDS011;489;47.806;12.858;2023-12-04T07:51:27;13.33;;;7.40;;
1000;SDS011;489;47.806;12.858;2023-12-04T07:53:29;10.97;;;7.27;;
1000;SDS011;489;47.806;12.858;2023-12-04T07:55:30;12.37;;;7.80;;
1000;SDS011;489;47.806;12.858;2023-12-04T07:57:32;12.10;;;7.10;;
1000;SDS011;489;47.806;12.858;2023-12-04T07:59:34;10.63;;;7.53;;
1000;SDS011;489;47.806;12.858;2023-12-04T08:01:36;8.03;;;5.60;;
1000;SDS011;489;47.806;12.858;2023-12-04T08:03:38;8.23;;;4.57;;
1000;SDS011;489;47.806;12.858;2023-12-04T08:05:40;6.43;;;4.90;;
1000;SDS011;489;47.806;12.858;2023-12-04T08:07:43;6.60;;;4.50;;
1000;SDS011;489;47.806;12.858;2023-12-04T08:09:45;9.67;;;5.00;;
1000;SDS011;489;47.806;12.858;2023-12-04T08:11:46;8.33;;;5.13;;
1000;SDS011;489;47.806;12.858;2023-12-04T08:13:48;7.87;;;5.70;;
1000;SDS011;489;47.806;12.858;2023-12-04T08:15:51;7.10;;;5.17;;
1000;SDS011;489;47.806;12.858;2023-12-04T08:17:52;6.40;;;4.30;;
1000;SDS011;489;47.806;12.858;2023-12-04T08:19:53;7.83;;;6.13;;
1000;SDS011;489;47.806;12.858;2023-12-04T08:21:55;6.17;;;4.10;;
1000;SDS011;489;47.806;12.858;2023-12-04T08:23:59;8.90;;;6.30;;
1000;SDS011;489;47.806;12.858;2023-12-04T08:26:01;7.60;;;5.10;;
1000;SDS011;489;47.806;12.858;2023-12-04T08:28:03;6.97;;;4.43;;
1000;SDS011;489;47.806;12.858;2023-12-04T08:30:06;6.93;;;4.27;;
1000;SDS011;489;47.806;12.858;2023-12-04T08:32:08;5.60;;;4.50;;
1000;SDS011;489;47.806;12.858;2023-12-04T08:34:10;5.57;;;4.30;;
1000;SDS011;489;47.806;12.858;2023-12-04T08:36:12;6.90;;;5.30;;
1000;SDS011;489;47.806;12.858;2023-12-04T08:38:14;6.60;;;4.90;;
1000;SDS011;489;47.806;12.858;2023-12-04T08:40:36;10.93;;;4.97;;
1000;SDS011;489;47.806;12.858;2023-12-04T08:42:38;8.13;;;4.90;;
1000;SDS011;489;47.806;12.858;2023-12-04T08:44:40;7.20;;;4.80;;
1000;SDS011;489;47.806;12.858;2023-12-04T08:46:43;6.47;;;4.80;;
1000;SDS011;489;47.806;12.858;2023-12-04T08:48:45;8.20;;;5.07;;
1000;SDS011;489;47.806;12.858;2023-12-04T08:50:47;7.53;;;5.50;;
1000;SDS011;489;47.806;12.858;2023-12-04T08:52:49;9.47;;;6.13;;
1000;SDS011;489;47.806;12.858;2023-12-04T08:54:52;9.40;;;6.07;;
1000;SDS011;489;47.806;12.858;2023-12-04T08:56:55;8.63;;;6.07;;
1000;SDS011;489;47.806;12.858;2023-12-04T08:58:57;7.40;;;5.30;;
1000;SDS011;489;47.806;12.858;2023-12-04T09:00:59;9.33;;;5.80;;
1000;SDS011;489;47.806;12.858;2023-12-04T09:03:01;8.50;;;6.00;;
1000;SDS011;489;47.806;12.858;2023-12-04T09:05:04;9.10;;;6.30;;
1000;SDS011;489;47.806;12.858;2023-12-04T09:07:06;9.57;;;7.60;;
1000;SDS011;489;47.806;12.858;2023-12-04T09:09:08;13.63;;;8.87;;
1000;SDS011;489;47.806;12.858;2023-12-04T09:11:12;13.33;;;8.60;;
1000;SDS011;489;47.806;12.858;2023-12-04T09:13:15;11.63;;;6.73;;
1000;SDS011;489;47.806;12.858;2023-12-04T09:15:16;10.63;;;6.77;;
1000;SDS011;489;47.806;12.858;2023-12-04T09:17:18;13.43;;;7.63;;
1000;SDS011;489;47.806;12.858;2023-12-04T09:19:20;11.70;;;7.10;;
1000;SDS011;489;47.806;12.858;2023-12-04T09:21:21;10.83;;;7.23;;
1000;SDS011;489;47.806;12.858;2023-12-04T09:23:42;12.37;;;7.33;;
1000;SDS011;489;47.806;12.858;2023-12-04T09:25:50;8.77;;;6.50;;
1000;SDS011;489;47.806;12.858;2023-12-04T09:27:52;10.73;;;7.07;;
1000;SDS011;489;47.806;12.858;2023-12-04T09:29:54;9.80;;;6.90;;
1000;SDS011;489;47.806;12.858;2023-12-04T09:31:59;10.63;;;7.23;;
1000;SDS011;489;47.806;12.858;2023-12-04T09:34:00;11.07;;;7.53;;
1000;SDS011;489;47.806;12.858;2023-12-04T09:36:02;9.83;;;7.87;;
1000;SDS011;489;47.806;12.858;2023-12-04T09:38:05;11.47;;;8.50;;
1000;SDS011;489;47.806;12.858;2023-12-04T09:40:07;11.20;;;8.30;;
1000;SDS011;489;47.806;12.858;2023-12-04T09:42:10;15.73;;;10.93;;
1000;SDS011;489;47.806;12.858;2023-12-04T09:44:12;13.37;;;9.97;;
1000;SDS011;489;47.806;12.858;2023-12-04T09:46:15;10.33;;;8.50;;
1000;SDS011;489;47.806;12.858;2023-12-04T09:48:18;11.50;;;6.87;;
1000;SDS011;489;47.806;12.858;2023-12-04T09:50:20;9.33;;;7.17;;
1000;SDS011;489;47.806;12.858;2023-12-04T09:52:22;8.93;;;6.83;;
1000;SDS011;489;47.806;12.858;2023-12-04T09:54:24;7.77;;;6.00;;
1000;SDS011;489;47.806;12.858;2023-12-04T09:56:27;10.40;;;8.37;;
1000;SDS011;489;47.806;12.858;2023-12-04T09:58:28;9.47;;;7.00;;
1000;SDS011;489;47.806;12.858;2023-12-04T10:00:33;8.67;;;7.00;;
1000;SDS011;489;47.806;12.858;2023-12-04T10:02:36;10.50;;;7.57;;
1000;SDS011;489;47.806;12.858;2023-12-04T10:04:39;10.80;;;7.47;;
1000;SDS011;489;47.806;12.858;2023-12-04T10:06:41;13.20;;;7.93;;
1000;SDS011;489;47.806;12.858;2023-12-04T10:08:44;13.53;;;8.10;;
1000;SDS011;489;47.806;12.858;2023-12-04T10:10:46;13.10;;;8.70;;
1000;SDS011;489;47.806;12.858;2023-12-04T10:12:49;14.80;;;9.83;;
1000;SDS011;489;47.806;12.858;2023-12-04T10:15:02;13.00;;;8.80;;
1000;SDS011;489;47.806;12.858;2023-12-04T10:17:14;13.80;;;8.53;;
1000;SDS011;489;47.806;12.858;2023-12-04T10:19:20;16.47;;;10.57;;
1000;SDS011;489;47.806;12.858;2023-12-04T10:21:31;16.83;;;10.77;;
1000;SDS011;489;47.806;12.858;2023-12-04T10:23:36;12.73;;;9.20;;
1000;SDS011;489;47.806;12.858;2023-12-04T10:25:39;13.53;;;10.10;;
1000;SDS011;489;47.806;12.858;2023-12-04T10:27:42;11.30;;;7.90;;
1000;SDS011;489;47.806;12.858;2023-12-04T10:29:44;12.20;;;8.10;;
1000;SDS011;489;47.806;12.858;2023-12-04T10:31:47;10.47;;;7.67;;
1000;SDS011;489;47.806;12.858;2023-12-04T10:33:50;11.70;;;9.27;;
1000;SDS011;489;47.806;12.858;2023-12-04T10:35:52;13.10;;;8.60;;
1000;SDS011;489;47.806;12.858;2023-12-04T10:37:56;8.33;;;7.13;;
1000;SDS011;489;47.806;12.858;2023-12-04T10:39:58;11.60;;;7.57;;
1000;SDS011;489;47.806;12.858;2023-12-04T10:42:01;10.93;;;7.70;;
1000;SDS011;489;47.806;12.858;2023-12-04T10:44:03;12.00;;;8.40;;
1000;SDS011;489;47.806;12.858;2023-12-04T10:46:06;11.10;;;8.00;;
1000;SDS011;489;47.806;12.858;2023-12-04T10:48:09;12.17;;;7.90;;
1000;SDS011;489;47.806;12.858;2023-12-04T10:50:12;9.10;;;6.93;;
1000;SDS011;489;47.806;12.858;2023-12-04T10:52:16;9.77;;;6.87;;
1000;SDS011;489;47.806;12.858;2023-12-04T10:54:19;17.50;;;11.23;;
1000;SDS011;489;47.806;12.858;2023-12-04T10:56:25;27.97;;;15.07;;
1000;SDS011;489;47.806;12.858;2023-12-04T10:58:32;40.77;;;20.00;;
1000;SDS011;489;47.806;12.858;2023-12-04T11:00:35;52.37;;;20.60;;
1000;SDS011;489;47.806;12.858;2023-12-04T11:02:41;105.47;;;39.33;;
1000;SDS011;489;47.806;12.858;2023-12-04T11:04:47;29.10;;;14.87;;
1000;SDS011;489;47.806;12.858;2023-12-04T11:06:52;15.23;;;10.70;;
1000;SDS011;489;47.806;12.858;2023-12-04T11:08:55;11.40;;;9.03;;
1000;SDS011;489;47.806;12.858;2023-12-04T11:10:59;10.70;;;7.97;;
1000;SDS011;489;47.806;12.858;2023-12-04T11:13:06;11.60;;;8.30;;
1000;SDS011;489;47.806;12.858;2023-12-04T11:15:09;10.53;;;7.80;;
1000;SDS011;489;47.806;12.858;2023-12-04T11:17:16;11.80;;;7.30;;
1000;SDS011;489;47.806;12.858;2023-12-04T11:19:20;10.03;;;7.73;;
1000;SDS011;489;47.806;12.858;2023-12-04T11:21:28;9.43;;;7.03;;
1000;SDS011;489;47.806;12.858;2023-12-04T11:23:31;8.80;;;6.70;;
1000;SDS011;489;47.806;12.858;2023-12-04T11:25:34;9.20;;;7.43;;
1000;SDS011;489;47.806;12.858;2023-12-04T11:27:36;12.37;;;9.37;;
1000;SDS011;489;47.806;12.858;2023-12-04T11:29:38;10.43;;;7.07;;
1000;SDS011;489;47.806;12.858;2023-12-04T11:31:40;11.07;;;8.03;;
1000;SDS011;489;47.806;12.858;2023-12-04T11:33:42;14.60;;;11.07;;
1000;SDS011;489;47.806;12.858;2023-12-04T11:35:44;10.80;;;9.00;;
1000;SDS011;489;47.806;12.858;2023-12-04T11:37:47;10.53;;;8.00;;
1000;SDS011;489;47.806;12.858;2023-12-04T11:39:49;11.57;;;8.83;;
1000;SDS011;489;47.806;12.858;2023-12-04T11:41:52;9.63;;;7.90;;
1000;SDS011;489;47.806;12.858;2023-12-04T11:43:55;13.07;;;9.17;;
1000;SDS011;489;47.806;12.858;2023-12-04T11:46:06;11.90;;;8.83;;
1000;SDS011;489;47.806;12.858;2023-12-04T11:48:09;12.40;;;8.73;;
1000;SDS011;489;47.806;12.858;2023-12-04T11:50:11;9.47;;;7.30;;
1000;SDS011;489;47.806;12.858;2023-12-04T11:52:35;10.07;;;7.50;;
1000;SDS011;489;47.806;12.858;2023-12-04T11:54:56;9.40;;;7.77;;
1000;SDS011;489;47.806;12.858;2023-12-04T11:57:03;11.77;;;8.33;;
1000;SDS011;489;47.806;12.858;2023-12-04T11:59:21;9.63;;;8.10;;
1000;SDS011;489;47.806;12.858;2023-12-04T12:01:23;10.40;;;7.67;;
1000;SDS011;489;47.806;12.858;2023-12-04T12:03:27;12.40;;;8.13;;
1000;SDS011;489;47.806;12.858;2023-12-04T12:05:29;10.30;;;7.50;;
1000;SDS011;489;47.806;12.858;2023-12-04T12:07:32;8.53;;;6.67;;
1000;SDS011;489;47.806;12.858;2023-12-04T12:09:34;11.67;;;8.03;;
1000;SDS011;489;47.806;12.858;2023-12-04T12:11:37;10.40;;;7.73;;
1000;SDS011;489;47.806;12.858;2023-12-04T12:13:41;10.80;;;7.60;;
1000;SDS011;489;47.806;12.858;2023-12-04T12:15:46;10.00;;;7.60;;
1000;SDS011;489;47.806;12.858;2023-12-04T12:17:49;10.60;;;7.87;;
1000;SDS011;489;47.806;12.858;2023-12-04T12:19:50;11.60;;;8.90;;
1000;SDS011;489;47.806;12.858;2023-12-04T12:21:51;16.30;;;12.00;;
1000;SDS011;489;47.806;12.858;2023-12-04T12:23:54;18.47;;;14.63;;
1000;SDS011;489;47.806;12.858;2023-12-04T12:25:56;18.67;;;13.83;;
1000;SDS011;489;47.806;12.858;2023-12-04T12:27:58;12.97;;;10.27;;
1000;SDS011;489;47.806;12.858;2023-12-04T12:30:05;11.80;;;8.50;;
1000;SDS011;489;47.806;12.858;2023-12-04T12:32:07;12.67;;;8.90;;
1000;SDS011;489;47.806;12.858;2023-12-04T12:34:09;9.90;;;7.70;;
1000;SDS011;489;47.806;12.858;2023-12-04T12:36:11;12.23;;;8.80;;
1000;SDS011;489;47.806;12.858;2023-12-04T12:38:13;14.63;;;10.33;;